CheckWX is a tool to help pilots better visualize weather data.  It is not intended as a substitute for an official pre-flight weather briefing.

03:33:58 UTC

EGKK METAR
London Gatwick Airport
London, United Kingdom
Current

14 mins ago

EGKK 310320Z 07003KT CAVOK 11/09 Q1021
Observed
May-31 @ 03:20 UTC
Wind
  • 070° at 3 KTS
Visibility
10,000+ meters
Flight Rules
VFR
Cloud Levels
  • Clear skies
Temperature
11°C / 52°F
Dewpoint
C / 48°F
Humidity
88%
Altimeter
30.15" Hg
Pressure
1020.92 hPa
Previous

44 mins ago

EGKK 310250Z 06004KT CAVOK 11/08 Q1021
Observed
May-31 @ 02:50 UTC
Wind
  • 060° at 4 KTS
Visibility
10,000+ meters
Flight Rules
VFR
Cloud Levels
  • Clear skies
Temperature
11°C / 52°F
Dewpoint
C / 46°F
Humidity
82%
Altimeter
30.15" Hg
Pressure
1020.92 hPa
Previous

1 hour ago

EGKK 310220Z 06005KT CAVOK 12/09 Q1021
Observed
May-31 @ 02:20 UTC
Wind
  • 060° at 5 KTS
Visibility
10,000+ meters
Flight Rules
VFR
Cloud Levels
  • Clear skies
Temperature
12°C / 54°F
Dewpoint
C / 48°F
Humidity
82%
Altimeter
30.15" Hg
Pressure
1020.92 hPa